createdAt,value
2019-05-15T00:01:16.551Z,60.14
2019-05-15T00:03:44.735Z,60.82
2019-05-15T00:06:12.895Z,60.92
2019-05-15T00:08:41.095Z,59.76
2019-05-15T00:11:08.978Z,59.87
2019-05-15T00:13:38.999Z,60.15
2019-05-15T00:16:08.427Z,59.40
2019-05-15T00:18:38.795Z,59.74
2019-05-15T00:21:08.959Z,59.42
2019-05-15T00:23:38.751Z,59.31
2019-05-15T00:26:06.276Z,59.13
2019-05-15T00:28:34.496Z,60.09
2019-05-15T00:31:02.626Z,59.32
2019-05-15T00:33:30.593Z,60.39
2019-05-15T00:35:58.961Z,59.73
2019-05-15T00:38:27.979Z,59.93
2019-05-15T00:40:58.293Z,60.08
2019-05-15T00:43:25.993Z,60.42
2019-05-15T00:45:53.813Z,60.23
2019-05-15T00:48:21.708Z,60.62
2019-05-15T00:50:49.723Z,60.18
2019-05-15T00:53:19.604Z,60.25
2019-05-15T00:55:48.647Z,59.85
2019-05-15T00:58:19.646Z,60.08
2019-05-15T01:00:48.520Z,60.03
2019-05-15T01:03:18.275Z,59.86
2019-05-15T01:05:48.115Z,59.33
2019-05-15T01:08:16.110Z,59.71
2019-05-15T01:10:44.111Z,58.69
2019-05-15T01:13:12.197Z,58.64
2019-05-15T01:15:40.462Z,59.19
2019-05-15T01:18:09.380Z,58.82
2019-05-15T01:20:39.182Z,59.65
2019-05-15T01:23:08.897Z,58.95
2019-05-15T01:25:39.013Z,57.93
2019-05-15T01:28:09.455Z,59.18
2019-05-15T01:30:39.310Z,58.66
2019-05-15T01:33:08.414Z,59.06
2019-05-15T01:35:38.417Z,58.52
2019-05-15T01:38:08.123Z,59.53
2019-05-15T01:40:38.495Z,58.69
2019-05-15T01:43:08.793Z,59.06
2019-05-15T01:45:39.396Z,58.79
2019-05-15T01:48:08.112Z,58.81
2019-05-15T01:50:38.405Z,58.62
2019-05-15T01:53:08.178Z,57.91
2019-05-15T01:55:36.274Z,58.12
2019-05-15T01:58:04.288Z,58.59
2019-05-15T02:00:33.441Z,58.60
2019-05-15T02:03:01.458Z,58.02
2019-05-15T02:05:29.199Z,58.07
2019-05-15T02:07:58.525Z,58.22
2019-05-15T02:10:29.044Z,58.20
2019-05-15T02:12:58.647Z,57.78
2019-05-15T02:15:28.476Z,57.81
2019-05-15T02:17:56.152Z,57.84
2019-05-15T02:20:24.262Z,58.26
2019-05-15T02:22:52.188Z,57.58
2019-05-15T02:25:20.632Z,58.16
2019-05-15T02:27:48.544Z,58.13
2019-05-15T02:30:27.991Z,58.02
2019-05-15T02:32:49.872Z,58.05
2019-05-15T02:35:18.503Z,58.07
2019-05-15T02:37:48.925Z,58.17
2019-05-15T02:40:19.168Z,57.96
2019-05-15T02:42:49.351Z,57.23
2019-05-15T02:45:19.603Z,58.03
2019-05-15T02:47:48.775Z,57.99
2019-05-15T02:50:20.192Z,58.15
2019-05-15T02:52:49.766Z,58.51
2019-05-15T02:55:19.647Z,57.82
2019-05-15T02:57:49.458Z,58.72
2019-05-15T03:00:36.658Z,58.16
2019-05-15T03:02:49.874Z,58.02
2019-05-15T03:05:19.590Z,57.67
2019-05-15T03:07:49.300Z,58.33
2019-05-15T03:10:19.981Z,57.78
2019-05-15T03:12:49.492Z,58.24
2019-05-15T03:15:19.473Z,58.23
2019-05-15T03:17:49.396Z,58.12
2019-05-15T03:20:18.652Z,57.80
2019-05-15T03:22:49.180Z,57.37
2019-05-15T03:25:19.122Z,57.49
2019-05-15T03:27:49.705Z,58.44
2019-05-15T03:30:21.113Z,57.47
2019-05-15T03:32:53.504Z,57.94
2019-05-15T03:35:17.525Z,57.87
2019-05-15T03:37:49.010Z,58.33
2019-05-15T03:40:19.095Z,58.83
2019-05-15T03:42:45.585Z,59.94
2019-05-15T03:45:13.828Z,58.65
2019-05-15T03:47:41.458Z,58.22
2019-05-15T03:50:09.577Z,58.60
2019-05-15T03:52:39.486Z,58.16
2019-05-15T03:55:10.567Z,58.70
2019-05-15T03:57:39.881Z,58.91
2019-05-15T04:00:09.642Z,59.14
2019-05-15T04:02:39.410Z,58.82
2019-05-15T04:05:11.793Z,59.35
2019-05-15T04:07:39.720Z,59.34
2019-05-15T04:10:09.929Z,59.13
2019-05-15T04:12:40.445Z,58.84
2019-05-15T04:15:10.055Z,59.23
2019-05-15T04:17:40.126Z,59.41
2019-05-15T04:20:09.807Z,59.10
2019-05-15T04:22:42.231Z,58.86
2019-05-15T04:25:10.920Z,58.71
2019-05-15T04:27:40.331Z,58.85
2019-05-15T04:30:10.569Z,58.74
2019-05-15T04:32:40.068Z,58.83
2019-05-15T04:35:09.506Z,58.47
2019-05-15T04:37:40.821Z,59.31
2019-05-15T04:40:09.477Z,59.47
2019-05-15T04:42:39.812Z,58.97
2019-05-15T04:45:09.956Z,58.15
2019-05-15T04:47:39.641Z,59.08
2019-05-15T04:50:08.961Z,60.06
2019-05-15T04:52:39.454Z,58.98
2019-05-15T04:55:10.289Z,58.77
2019-05-15T04:57:40.247Z,58.76
2019-05-15T05:00:09.624Z,58.08
2019-05-15T05:02:39.878Z,58.54
2019-05-15T05:05:10.158Z,58.84
2019-05-15T05:07:38.972Z,59.77
2019-05-15T05:10:09.711Z,59.54
2019-05-15T05:12:41.372Z,59.14
2019-05-15T05:15:08.500Z,59.45
2019-05-15T05:17:38.799Z,59.02
2019-05-15T05:20:08.068Z,59.27
2019-05-15T05:22:38.933Z,58.69
2019-05-15T05:25:08.150Z,59.33
2019-05-15T05:27:38.043Z,59.55
2019-05-15T05:30:08.163Z,60.36
2019-05-15T05:32:35.527Z,59.90
2019-05-15T05:35:05.272Z,60.79
2019-05-15T05:37:33.245Z,59.47
2019-05-15T05:40:01.215Z,59.62
2019-05-15T05:42:29.370Z,60.11
2019-05-15T05:44:58.249Z,59.98
2019-05-15T05:47:28.728Z,59.13
2019-05-15T05:49:58.169Z,59.99
2019-05-15T05:52:27.982Z,59.18
2019-05-15T05:54:58.132Z,59.28
2019-05-15T05:57:27.949Z,59.08
2019-05-15T05:59:58.179Z,59.90
2019-05-15T06:02:28.039Z,59.84
2019-05-15T06:04:58.286Z,58.92
2019-05-15T06:07:27.927Z,59.26
2019-05-15T06:09:57.997Z,58.78
2019-05-15T06:12:28.104Z,58.44
2019-05-15T06:14:57.953Z,59.71
2019-05-15T06:17:27.956Z,59.56
2019-05-15T06:19:55.249Z,58.84
2019-05-15T06:22:23.316Z,58.08
2019-05-15T06:24:51.282Z,57.43
2019-05-15T06:27:20.029Z,58.66
2019-05-15T06:29:48.558Z,58.47
2019-05-15T06:32:19.253Z,59.05
2019-05-15T06:34:48.483Z,59.12
2019-05-15T06:37:19.446Z,58.48
2019-05-15T06:39:48.129Z,57.67
2019-05-15T06:42:18.618Z,57.97
2019-05-15T06:44:48.297Z,58.91
2019-05-15T06:47:18.018Z,58.20
2019-05-15T06:49:45.660Z,58.84
2019-05-15T06:52:13.792Z,56.95
2019-05-15T06:54:41.772Z,57.00
2019-05-15T06:57:10.011Z,57.51
2019-05-15T06:59:38.907Z,57.58
2019-05-15T07:02:08.118Z,57.69
2019-05-15T07:04:38.189Z,58.07
2019-05-15T07:07:10.435Z,58.07
2019-05-15T07:09:37.956Z,57.54
2019-05-15T07:12:08.086Z,57.42
2019-05-15T07:14:38.017Z,58.14
2019-05-15T07:17:09.240Z,57.52
2019-05-15T07:19:39.292Z,57.76
2019-05-15T07:22:09.348Z,56.59
2019-05-15T07:24:38.333Z,57.49
2019-05-15T07:27:08.030Z,58.07
2019-05-15T07:29:38.385Z,56.91
2019-05-15T07:32:07.998Z,58.37
2019-05-15T07:34:37.828Z,56.32
2019-05-15T07:37:05.605Z,57.21
2019-05-15T07:39:33.461Z,56.99
2019-05-15T07:42:01.667Z,56.90
2019-05-15T07:44:29.595Z,57.03
2019-05-15T07:46:58.333Z,57.57
2019-05-15T07:49:28.731Z,57.09
2019-05-15T07:51:59.025Z,56.72
2019-05-15T07:54:28.856Z,56.06
2019-05-15T07:56:58.240Z,55.86
2019-05-15T07:59:27.981Z,56.07
2019-05-15T08:01:58.172Z,55.11
2019-05-15T08:04:30.510Z,56.18
2019-05-15T08:06:58.917Z,55.23
2019-05-15T08:09:28.279Z,55.59
2019-05-15T08:11:55.848Z,55.69
2019-05-15T08:14:23.797Z,55.09
2019-05-15T08:16:51.595Z,56.07
2019-05-15T08:19:19.550Z,56.68
2019-05-15T08:21:51.894Z,55.22
2019-05-15T08:24:18.825Z,56.28
2019-05-15T08:26:48.640Z,55.16
2019-05-15T08:29:21.463Z,55.91
2019-05-15T08:31:48.221Z,57.40
2019-05-15T08:34:19.423Z,55.99
2019-05-15T08:36:48.243Z,56.44
2019-05-15T08:39:18.866Z,55.80
2019-05-15T08:41:48.369Z,55.48
2019-05-15T08:44:18.417Z,56.91
2019-05-15T08:46:48.041Z,56.44
2019-05-15T08:49:16.037Z,55.30
2019-05-15T08:51:44.090Z,55.95
2019-05-15T08:54:11.924Z,55.31
2019-05-15T08:56:39.946Z,55.65
2019-05-15T08:59:08.823Z,56.18
2019-05-15T09:01:38.239Z,56.24
2019-05-15T09:04:09.010Z,54.88
2019-05-15T09:06:41.042Z,56.31
2019-05-15T09:09:09.650Z,57.11
2019-05-15T09:11:39.294Z,56.50
2019-05-15T09:14:08.195Z,58.03
2019-05-15T09:16:38.547Z,56.04
2019-05-15T09:19:08.195Z,57.06
2019-05-15T09:21:38.541Z,55.31
2019-05-15T09:24:05.833Z,56.35
2019-05-15T09:26:35.526Z,57.57
2019-05-15T09:29:03.636Z,55.37
2019-05-15T09:31:31.763Z,56.03
2019-05-15T09:33:59.514Z,57.41
2019-05-15T09:36:28.879Z,56.56
2019-05-15T09:38:58.514Z,55.77
2019-05-15T09:41:28.634Z,55.72
2019-05-15T09:43:57.893Z,56.51
2019-05-15T09:46:26.152Z,55.30
2019-05-15T09:48:54.202Z,57.08
2019-05-15T09:51:22.285Z,56.30
2019-05-15T09:53:50.441Z,57.41
2019-05-15T09:56:18.810Z,57.17
2019-05-15T09:58:48.850Z,56.61
2019-05-15T10:01:19.573Z,57.27
2019-05-15T10:03:48.848Z,55.84
2019-05-15T10:06:20.112Z,54.65
2019-05-15T10:08:49.064Z,55.93
2019-05-15T10:11:19.775Z,56.24
2019-05-15T10:13:47.152Z,53.09
2019-05-15T10:16:19.762Z,52.49
2019-05-15T10:18:50.834Z,53.56
2019-05-15T10:21:18.565Z,52.73
2019-05-15T10:23:49.137Z,54.60
2019-05-15T10:26:19.077Z,51.76
2019-05-15T10:28:49.389Z,52.09
2019-05-15T10:31:19.260Z,52.21
2019-05-15T10:33:48.963Z,52.27
2019-05-15T10:36:18.952Z,52.82
2019-05-15T10:38:48.897Z,54.12
2019-05-15T10:41:18.822Z,52.67
2019-05-15T10:43:55.573Z,52.54
2019-05-15T10:46:19.037Z,52.17
2019-05-15T10:48:49.259Z,53.50
2019-05-15T10:51:19.599Z,51.56
2019-05-15T10:53:48.735Z,51.92
2019-05-15T10:56:18.546Z,52.13
2019-05-15T10:58:50.213Z,52.90
2019-05-15T11:01:18.951Z,52.56
2019-05-15T11:03:49.266Z,52.15
2019-05-15T11:06:18.345Z,52.07
2019-05-15T11:08:50.986Z,52.73
2019-05-15T11:11:18.397Z,51.90
2019-05-15T11:13:46.359Z,52.14
2019-05-15T11:16:14.367Z,52.66
2019-05-15T11:18:42.592Z,52.72
2019-05-15T11:21:12.062Z,54.13
2019-05-15T11:23:42.571Z,52.49
2019-05-15T11:26:09.973Z,53.21
2019-05-15T11:28:39.072Z,52.67
2019-05-15T11:31:10.464Z,53.14
2019-05-15T11:33:38.498Z,52.14
2019-05-15T11:36:06.573Z,53.40
2019-05-15T11:38:34.573Z,53.64
2019-05-15T11:41:04.661Z,53.68
2019-05-15T11:43:32.463Z,53.35
2019-05-15T11:46:00.388Z,54.54
2019-05-15T11:48:29.888Z,54.93
2019-05-15T11:50:58.026Z,54.10
2019-05-15T11:53:28.435Z,53.44
2019-05-15T11:55:56.452Z,54.33
2019-05-15T11:58:24.668Z,55.19
2019-05-15T12:00:52.591Z,55.02
2019-05-15T12:03:24.151Z,54.20
2019-05-15T12:05:50.577Z,53.45
2019-05-15T12:08:18.850Z,52.83
2019-05-15T12:10:46.962Z,54.84
2019-05-15T12:13:14.961Z,54.45
2019-05-15T12:15:42.891Z,55.18
2019-05-15T12:18:10.807Z,54.74
2019-05-15T12:20:39.180Z,55.32
2019-05-15T12:23:09.013Z,56.17
2019-05-15T12:25:39.537Z,56.19
2019-05-15T12:28:09.467Z,55.62
2019-05-15T12:30:39.674Z,55.72
2019-05-15T12:33:09.293Z,55.42
2019-05-15T12:35:39.802Z,54.56
2019-05-15T12:38:08.881Z,55.08
2019-05-15T13:00:38.147Z,57.02
2019-05-15T13:03:05.968Z,56.45
2019-05-15T13:05:34.015Z,57.76
2019-05-15T13:08:02.112Z,58.74
2019-05-15T13:10:30.599Z,57.96
2019-05-15T13:13:04.989Z,58.70
2019-05-15T13:15:28.902Z,58.96
2019-05-15T13:17:59.527Z,57.65
2019-05-15T13:20:28.815Z,57.00
2019-05-15T13:22:59.207Z,56.67
2019-05-15T13:25:28.007Z,57.43
2019-05-15T13:27:58.082Z,57.13
2019-05-15T13:30:26.471Z,58.50
2019-05-15T13:32:54.428Z,58.65
2019-05-15T13:35:22.526Z,58.73
2019-05-15T13:37:50.808Z,58.41
2019-05-15T13:40:33.829Z,58.18
2019-05-15T13:42:51.719Z,58.38
2019-05-15T13:45:19.187Z,58.49
2019-05-15T13:47:48.133Z,59.30
2019-05-15T13:50:19.357Z,60.17
2019-05-15T13:52:48.217Z,60.44
2019-05-15T13:55:16.243Z,60.95
2019-05-15T13:57:44.168Z,60.44
2019-05-15T14:00:12.660Z,61.12
2019-05-15T14:02:40.311Z,61.08
2019-05-15T14:05:09.632Z,61.78
2019-05-15T14:07:48.700Z,61.86
2019-05-15T14:10:09.455Z,61.55
2019-05-15T14:12:38.325Z,61.49
2019-05-15T14:15:09.047Z,60.98
2019-05-15T14:17:37.687Z,63.93
2019-05-15T14:20:08.713Z,63.54
2019-05-15T14:22:38.950Z,63.86
2019-05-15T14:25:08.850Z,64.92
2019-05-15T14:27:39.886Z,65.47
2019-05-15T14:30:08.925Z,65.91
2019-05-15T14:32:39.520Z,64.84
2019-05-15T14:35:09.003Z,64.82
2019-05-15T14:37:37.467Z,64.87
2019-05-15T14:40:08.707Z,65.10
2019-05-15T14:42:39.523Z,65.75
2019-05-15T14:45:08.883Z,65.81
2019-05-15T14:47:38.568Z,66.69
2019-05-15T14:50:10.025Z,66.47
2019-05-15T14:52:38.559Z,67.32
2019-05-15T14:55:07.058Z,65.97
2019-05-15T14:57:35.163Z,65.79
2019-05-15T15:00:03.189Z,66.34
2019-05-15T15:02:32.212Z,63.76
2019-05-15T15:05:00.353Z,65.55
2019-05-15T15:07:28.471Z,65.38
2019-05-15T15:09:58.260Z,66.26
2019-05-15T15:12:28.385Z,66.78
2019-05-15T15:14:56.732Z,65.71
2019-05-15T15:17:24.913Z,67.21
2019-05-15T15:19:53.302Z,67.57
2019-05-15T15:22:21.612Z,65.05
2019-05-15T15:24:49.820Z,65.62
2019-05-15T15:27:18.057Z,65.65
2019-05-15T15:29:48.180Z,64.60
2019-05-15T15:32:16.396Z,65.69
2019-05-15T15:34:44.454Z,67.64
2019-05-15T15:37:12.537Z,67.74
2019-05-15T15:39:40.598Z,67.71
2019-05-15T15:42:08.837Z,67.21
2019-05-15T15:44:38.033Z,67.30
2019-05-15T15:47:08.677Z,67.69
2019-05-15T15:49:38.792Z,67.56
2019-05-15T15:52:08.779Z,68.47
2019-05-15T15:54:39.415Z,67.13
2019-05-15T15:57:08.388Z,67.67
2019-05-15T15:59:38.588Z,68.55
2019-05-15T16:02:08.826Z,69.88
2019-05-15T16:04:39.291Z,70.79
2019-05-15T16:07:09.665Z,70.81
2019-05-15T16:09:38.814Z,72.10
2019-05-15T16:12:09.305Z,72.25
2019-05-15T16:14:38.138Z,72.60
2019-05-15T16:17:08.438Z,73.83
2019-05-15T16:19:38.443Z,74.59
2019-05-15T16:22:08.593Z,74.45
2019-05-15T16:24:38.210Z,74.54
2019-05-15T16:27:06.054Z,74.18
2019-05-15T16:29:35.234Z,74.94
2019-05-15T16:32:03.277Z,76.15
2019-05-15T16:34:31.293Z,75.96
2019-05-15T16:36:59.443Z,76.53
2019-05-15T16:39:28.700Z,76.67
2019-05-15T16:41:59.202Z,75.79
2019-05-15T16:44:28.925Z,76.14
2019-05-15T16:46:58.714Z,75.09
2019-05-15T16:49:28.455Z,75.05
2019-05-15T16:51:58.326Z,74.54
2019-05-15T16:54:28.809Z,74.93
2019-05-15T16:56:58.743Z,77.91
2019-05-15T16:59:28.739Z,79.46
2019-05-15T17:01:56.460Z,80.90
2019-05-15T17:04:24.599Z,81.07
2019-05-15T17:06:52.686Z,81.23
2019-05-15T17:09:21.895Z,81.82
2019-05-15T17:11:49.958Z,81.79
2019-05-15T17:14:19.823Z,82.46
2019-05-15T17:16:48.146Z,83.13
2019-05-15T17:19:18.004Z,83.79
2019-05-15T17:21:48.172Z,83.75
2019-05-15T17:24:16.722Z,84.34
2019-05-15T17:26:44.740Z,84.85
2019-05-15T17:29:12.809Z,84.74
2019-05-15T17:31:41.147Z,85.18
2019-05-15T17:34:09.245Z,85.12
2019-05-15T17:36:38.253Z,86.39
2019-05-15T17:39:08.868Z,86.50
2019-05-15T17:41:39.092Z,86.29
2019-05-15T17:44:06.983Z,86.24
2019-05-15T17:46:35.339Z,86.24
2019-05-15T17:49:08.975Z,86.49
2019-05-15T17:51:33.357Z,87.12
2019-05-15T17:54:03.122Z,87.37
2019-05-15T17:56:31.555Z,87.37
2019-05-15T17:58:59.306Z,87.48
2019-05-15T18:01:28.287Z,87.65
2019-05-15T18:03:59.154Z,88.11
2019-05-15T18:06:28.904Z,88.43
2019-05-15T18:08:59.337Z,88.42
2019-05-15T18:11:27.872Z,88.59
2019-05-15T18:13:58.045Z,88.65
2019-05-15T18:16:25.830Z,88.53
2019-05-15T18:18:54.151Z,89.00
2019-05-15T18:21:23.378Z,89.35
2019-05-15T18:23:51.419Z,89.58
2019-05-15T18:26:20.092Z,89.48
2019-05-15T18:28:48.951Z,89.15
2019-05-15T18:31:18.145Z,89.66
2019-05-15T18:33:53.881Z,90.02
2019-05-15T18:36:16.730Z,90.52
2019-05-15T18:38:45.050Z,90.45
2019-05-15T18:41:14.523Z,90.58
2019-05-15T18:43:42.384Z,90.22
2019-05-15T18:46:10.432Z,90.52
2019-05-15T18:48:38.606Z,90.28
2019-05-15T18:51:08.107Z,90.79
2019-05-15T18:53:38.674Z,90.83
2019-05-15T18:56:08.779Z,90.97
2019-05-15T18:58:38.130Z,90.93
2019-05-15T19:01:09.051Z,91.08
2019-05-15T19:03:38.429Z,90.85
2019-05-15T19:06:08.742Z,89.98
2019-05-15T19:08:38.747Z,90.36
2019-05-15T19:11:08.534Z,90.34
2019-05-15T19:13:38.774Z,90.68
2019-05-15T19:16:06.684Z,90.97
2019-05-15T19:18:34.808Z,91.50
2019-05-15T19:21:02.864Z,91.64
2019-05-15T19:23:30.863Z,90.84
2019-05-15T19:25:58.870Z,91.40
2019-05-15T19:28:28.668Z,91.67
2019-05-15T19:30:58.569Z,91.62
2019-05-15T19:33:36.432Z,91.50
2019-05-15T19:35:56.621Z,91.19
2019-05-15T19:38:24.628Z,91.44
2019-05-15T19:40:53.082Z,91.79
2019-05-15T19:43:21.308Z,92.47
2019-05-15T19:45:51.932Z,92.39
2019-05-15T19:48:20.260Z,92.58
2019-05-15T19:50:48.243Z,92.77
2019-05-15T19:53:18.829Z,92.88
2019-05-15T19:55:47.970Z,92.98
2019-05-15T19:58:18.328Z,93.39
2019-05-15T20:00:47.974Z,93.43
2019-05-15T20:03:17.705Z,92.82
2019-05-15T20:05:45.595Z,92.65
2019-05-15T20:08:13.634Z,92.70
2019-05-15T20:10:41.742Z,92.69
2019-05-15T20:13:09.913Z,92.85
2019-05-15T20:15:38.148Z,92.72
2019-05-15T20:18:07.925Z,92.80
2019-05-15T20:20:38.263Z,92.71
2019-05-15T20:23:08.535Z,92.75
2019-05-15T20:25:35.793Z,92.69
2019-05-15T20:28:03.763Z,92.42
2019-05-15T20:30:32.806Z,92.25
2019-05-15T20:33:00.838Z,92.06
2019-05-15T20:35:29.258Z,91.78
2019-05-15T20:37:58.192Z,91.35
2019-05-15T20:40:26.241Z,91.09
2019-05-15T20:42:54.108Z,90.42
2019-05-15T20:45:22.688Z,90.57
2019-05-15T20:47:50.598Z,90.13
2019-05-15T20:50:19.457Z,89.64
2019-05-15T20:52:48.892Z,89.17
2019-05-15T20:55:17.227Z,89.32
2019-05-15T20:57:47.653Z,89.73
2019-05-15T21:00:15.507Z,89.83
2019-05-15T21:02:43.432Z,89.75
2019-05-15T21:05:11.992Z,89.93
2019-05-15T21:07:43.087Z,90.11
2019-05-15T21:10:10.572Z,89.39
2019-05-15T21:12:41.121Z,89.18
2019-05-15T21:15:09.120Z,89.56
2019-05-15T21:17:40.346Z,89.54
2019-05-15T21:20:10.440Z,89.47
2019-05-15T21:22:39.881Z,89.27
2019-05-15T21:25:08.077Z,89.04
2019-05-15T21:27:41.155Z,89.11
2019-05-15T21:30:08.978Z,89.00
2019-05-15T21:32:38.283Z,89.14
2019-05-15T21:35:08.799Z,89.31
2019-05-15T21:37:39.020Z,89.45
2019-05-15T21:40:08.133Z,89.94
2019-05-15T21:42:38.987Z,89.84
2019-05-15T21:45:13.724Z,90.05
2019-05-15T21:47:38.560Z,90.55
2019-05-15T21:50:08.061Z,90.83
2019-05-15T21:52:38.389Z,91.02
2019-05-15T21:55:08.950Z,90.95
2019-05-15T21:57:39.333Z,90.64
2019-05-15T22:00:10.516Z,90.73
2019-05-15T22:02:39.102Z,90.62
2019-05-15T22:05:08.669Z,91.03
2019-05-15T22:07:38.682Z,91.25
2019-05-15T22:10:10.616Z,90.46
2019-05-15T22:12:37.740Z,91.08
2019-05-15T22:15:06.833Z,91.16
2019-05-15T22:17:38.847Z,91.07
2019-05-15T22:20:08.475Z,90.89
2019-05-15T22:22:37.844Z,91.04
2019-05-15T22:25:10.770Z,91.31
2019-05-15T22:27:37.794Z,91.41
2019-05-15T22:30:08.701Z,91.23
2019-05-15T22:32:41.209Z,91.36
2019-05-15T22:35:13.362Z,91.37
2019-05-15T22:37:38.719Z,91.43
2019-05-15T22:40:08.918Z,90.96
2019-05-15T22:42:39.095Z,90.52
2019-05-15T22:45:09.059Z,90.25
2019-05-15T22:47:38.966Z,89.92
2019-05-15T22:50:08.333Z,89.53
2019-05-15T22:52:38.573Z,88.98
2019-05-15T22:55:06.386Z,89.05
2019-05-15T22:57:34.398Z,88.59
2019-05-15T23:00:02.458Z,88.63
2019-05-15T23:02:31.897Z,88.40
2019-05-15T23:05:00.435Z,87.15
2019-05-15T23:07:28.525Z,87.10
2019-05-15T23:09:58.300Z,87.29
2019-05-15T23:12:28.609Z,87.86
2019-05-15T23:14:57.918Z,87.73
2019-05-15T23:17:27.778Z,88.44
2019-05-15T23:19:57.815Z,88.82
2019-05-15T23:22:27.801Z,88.97
2019-05-15T23:24:58.532Z,89.99
2019-05-15T23:29:59.225Z,90.21
2019-05-15T23:32:28.903Z,90.26
2019-05-15T23:34:58.414Z,89.97
2019-05-15T23:37:28.078Z,89.90
2019-05-15T23:39:57.918Z,90.40
2019-05-15T23:42:25.823Z,90.33
2019-05-15T23:44:53.859Z,89.91
2019-05-15T23:47:21.964Z,89.06
2019-05-15T23:49:49.904Z,88.55
2019-05-15T23:52:18.867Z,88.33
2019-05-15T23:54:46.697Z,88.36
2019-05-15T23:57:14.843Z,87.71
2019-05-15T23:59:42.818Z,86.55
